Time;durP1;ratioP1;P1;durP2;ratioP2;P2;SDS_P1;SDS_P2;PMS_P1;PMS_P2;Temp;Humidity;BMP_temperature;BMP_pressure;BME280_temperature;BME280_humidity;BME280_pressure;Samples;Min_cycle;Max_cycle;Signal;HPM_P1;HPM_P2
2023/02/18 00:01:03;;;;;;;249.80;241.00;;;11.20;99.90;;;;;;5084686;28;20446;-83
2023/02/18 00:03:30;;;;;;;200.17;192.67;;;11.20;99.90;;;;;;5084306;28;20577;-84
2023/02/18 00:05:57;;;;;;;165.73;159.33;;;11.10;99.90;;;;;;5084234;28;20470;-83
2023/02/18 00:08:24;;;;;;;207.57;200.17;;;11.10;99.90;;;;;;5083798;28;20444;-84
2023/02/18 00:10:50;;;;;;;194.17;186.83;;;11.10;99.90;;;;;;5083813;28;20833;-85
2023/02/18 00:13:17;;;;;;;203.20;195.70;;;11.10;99.90;;;;;;5084019;28;20534;-83
2023/02/18 00:15:44;;;;;;;226.50;218.13;;;11.20;99.90;;;;;;5083766;28;20454;-84
2023/02/18 00:18:12;;;;;;;245.57;236.67;;;11.10;99.90;;;;;;5084739;28;20475;-85
2023/02/18 00:20:39;;;;;;;255.47;246.50;;;11.10;99.90;;;;;;5083544;28;20451;-85
2023/02/18 00:23:06;;;;;;;247.57;238.60;;;11.10;99.90;;;;;;5083280;28;20497;-83
2023/02/18 00:25:33;;;;;;;279.40;269.40;;;11.20;99.90;;;;;;5083611;28;20446;-84
2023/02/18 00:27:59;;;;;;;288.77;278.43;;;11.10;99.90;;;;;;5083832;28;20446;-86
2023/02/18 00:30:27;;;;;;;309.60;298.10;;;11.10;99.90;;;;;;5083684;28;20821;-83
2023/02/18 00:32:54;;;;;;;295.27;284.37;;;11.10;99.90;;;;;;5083988;28;20471;-85
2023/02/18 00:35:22;;;;;;;223.90;215.87;;;11.10;99.90;;;;;;5083002;28;20451;-84
2023/02/18 00:37:51;;;;;;;240.70;231.70;;;11.10;99.90;;;;;;5083369;28;20472;-83
2023/02/18 00:40:18;;;;;;;310.13;298.93;;;11.10;99.90;;;;;;5083101;28;20450;-84
2023/02/18 00:42:45;;;;;;;287.80;277.63;;;11.10;99.90;;;;;;5082470;28;20478;-83
2023/02/18 00:45:11;;;;;;;307.50;296.20;;;11.10;99.90;;;;;;5082891;28;20454;-84
2023/02/18 00:47:38;;;;;;;293.40;282.73;;;11.10;99.90;;;;;;5083316;28;20453;-84
2023/02/18 00:50:06;;;;;;;328.60;316.80;;;11.00;99.90;;;;;;5082560;28;20454;-83
2023/02/18 00:52:35;;;;;;;322.30;310.80;;;11.00;99.90;;;;;;5082770;28;20470;-84
2023/02/18 00:55:02;;;;;;;319.60;308.30;;;11.10;99.90;;;;;;5081493;28;20450;-84
2023/02/18 00:57:29;;;;;;;332.30;320.33;;;11.00;99.90;;;;;;5081689;28;20795;-84
2023/02/18 00:59:55;;;;;;;290.13;279.53;;;11.00;99.90;;;;;;5082036;28;20479;-84
2023/02/18 01:02:22;;;;;;;257.90;248.70;;;11.10;99.90;;;;;;5082612;28;20986;-84
2023/02/18 01:04:49;;;;;;;275.23;265.23;;;11.10;99.90;;;;;;5082401;28;20461;-85
2023/02/18 01:07:16;;;;;;;327.43;316.00;;;11.10;99.90;;;;;;5082700;28;20447;-84
2023/02/18 01:09:44;;;;;;;355.50;342.80;;;11.10;99.90;;;;;;5082944;28;20908;-84
2023/02/18 01:12:11;;;;;;;329.77;317.80;;;11.10;99.90;;;;;;5082558;28;20467;-83
2023/02/18 01:14:37;;;;;;;341.03;328.73;;;11.00;99.90;;;;;;5082583;28;20454;-83
2023/02/18 01:17:04;;;;;;;341.37;329.50;;;11.00;99.90;;;;;;5082126;28;20451;-84
2023/02/18 01:19:31;;;;;;;324.00;312.67;;;11.00;99.90;;;;;;5080837;28;20822;-84
2023/02/18 01:21:57;;;;;;;345.57;333.17;;;11.00;99.90;;;;;;5081826;28;20465;-83
2023/02/18 01:24:24;;;;;;;370.80;357.13;;;11.00;99.90;;;;;;5081817;28;20451;-83
2023/02/18 01:26:52;;;;;;;357.07;344.30;;;11.00;99.90;;;;;;5081784;28;20844;-83
2023/02/18 01:29:19;;;;;;;347.77;335.43;;;11.00;99.90;;;;;;5082124;28;20462;-84
2023/02/18 01:31:46;;;;;;;315.93;305.13;;;11.00;99.90;;;;;;5081994;28;20457;-85
2023/02/18 01:34:14;;;;;;;321.03;309.83;;;11.00;99.90;;;;;;5081696;28;20470;-84
2023/02/18 01:36:40;;;;;;;357.00;344.33;;;11.00;99.90;;;;;;5082431;28;20454;-83
2023/02/18 01:39:07;;;;;;;380.73;366.93;;;11.00;99.90;;;;;;5081820;28;20467;-84
2023/02/18 01:41:34;;;;;;;396.67;382.37;;;10.90;99.90;;;;;;5081302;28;20446;-84
2023/02/18 01:44:17;;;;;;;428.17;412.50;;;10.90;99.90;;;;;;5082086;28;20489;-84
2023/02/18 01:46:44;;;;;;;428.73;413.30;;;10.90;99.90;;;;;;5081508;28;20465;-84
2023/02/18 01:49:13;;;;;;;486.27;468.23;;;10.90;99.90;;;;;;5082017;28;20450;-84
2023/02/18 01:51:46;;;;;;;559.10;536.03;;;10.80;99.90;;;;;;5081403;28;20446;-84
2023/02/18 01:54:18;;;;;;;618.23;591.23;;;10.80;99.90;;;;;;5082025;28;20475;-85
2023/02/18 01:57:01;;;;;;;688.60;655.73;;;10.80;99.90;;;;;;5081804;28;20451;-84
2023/02/18 01:59:32;;;;;;;735.87;697.77;;;10.80;99.90;;;;;;5062794;28;21035;-84
2023/02/18 02:02:00;;;;;;;757.33;715.40;;;10.70;99.90;;;;;;5079310;28;20941;-84
2023/02/18 02:04:27;;;;;;;753.87;712.97;;;10.70;99.90;;;;;;5082392;28;20459;-82
2023/02/18 02:06:54;;;;;;;766.97;724.87;;;10.70;99.90;;;;;;5082107;28;20451;-87
2023/02/18 02:09:24;;;;;;;767.20;724.10;;;10.70;99.90;;;;;;5081648;28;20446;-84
2023/02/18 02:12:26;;;;;;;739.07;699.77;;;10.70;99.90;;;;;;5082021;28;20508;-82
2023/02/18 02:15:16;;;;;;;772.77;727.97;;;10.60;99.90;;;;;;5033938;28;20820;-84
2023/02/18 02:18:00;;;;;;;785.67;738.77;;;10.60;99.90;;;;;;5082126;28;20446;-83
2023/02/18 02:21:00;;;;;;;781.53;735.57;;;10.70;99.90;;;;;;5081890;28;20831;-84
2023/02/18 02:23:45;;;;;;;727.83;690.33;;;10.70;99.90;;;;;;5081355;28;20466;-84
2023/02/18 02:26:42;;;;;;;752.53;710.67;;;10.70;99.90;;;;;;5082151;28;20454;-84
2023/02/18 02:29:53;;;;;;;686.23;652.27;;;10.70;99.90;;;;;;5081280;28;20450;-84
2023/02/18 02:33:05;;;;;;;705.60;670.70;;;10.70;99.90;;;;;;5081480;28;20477;-84
2023/02/18 02:35:39;;;;;;;704.43;669.13;;;10.70;99.90;;;;;;5053382;28;20457;-85
2023/02/18 02:38:11;;;;;;;737.57;697.93;;;10.70;99.90;;;;;;5083037;28;20446;-84
2023/02/18 02:40:44;;;;;;;721.37;683.40;;;10.70;99.90;;;;;;5081088;28;20461;-85
2023/02/18 02:43:20;;;;;;;733.47;693.87;;;10.70;99.90;;;;;;5081582;28;20489;-85
2023/02/18 02:45:54;;;;;;;709.50;672.40;;;10.70;99.90;;;;;;5081151;28;20998;-84
2023/02/18 02:48:28;;;;;;;715.63;677.53;;;10.70;99.90;;;;;;5081410;28;20857;-85
2023/02/18 02:51:04;;;;;;;701.13;664.73;;;10.70;99.90;;;;;;5081906;28;20457;-84
2023/02/18 02:53:35;;;;;;;687.67;652.97;;;10.80;99.90;;;;;;5081373;28;20474;-84
2023/02/18 02:56:02;;;;;;;685.87;651.07;;;10.80;99.90;;;;;;5081059;28;20454;-84
2023/02/18 02:58:28;;;;;;;681.40;646.83;;;10.80;99.90;;;;;;5080919;28;20961;-84
2023/02/18 03:01:16;;;;;;;635.47;605.67;;;10.80;99.90;;;;;;5080825;28;20459;-83
2023/02/18 03:04:05;;;;;;;621.90;593.10;;;10.90;99.90;;;;;;5080873;28;20466;-83
2023/02/18 03:07:01;;;;;;;597.10;570.10;;;10.90;99.90;;;;;;5079511;28;20454;-84
2023/02/18 03:09:39;;;;;;;534.03;512.03;;;11.00;99.90;;;;;;5080711;28;20442;-84
2023/02/18 03:12:16;;;;;;;538.47;516.37;;;11.00;99.90;;;;;;5080637;28;20444;-84
2023/02/18 03:14:48;;;;;;;541.07;518.57;;;10.90;99.90;;;;;;5081353;28;20450;-85
2023/02/18 03:17:24;;;;;;;543.93;521.27;;;10.90;99.90;;;;;;5081009;28;20454;-84
2023/02/18 03:19:57;;;;;;;527.73;505.87;;;11.00;99.90;;;;;;5081320;28;20480;-84
2023/02/18 03:22:30;;;;;;;501.27;481.47;;;11.00;99.90;;;;;;5081038;28;20979;-86
2023/02/18 03:24:58;;;;;;;488.13;468.83;;;11.00;99.90;;;;;;5081474;28;20450;-84
2023/02/18 03:27:29;;;;;;;473.30;455.10;;;11.00;99.90;;;;;;5081120;28;20446;-85
2023/02/18 03:30:01;;;;;;;544.03;521.57;;;11.00;99.90;;;;;;5085008;28;20796;-84
2023/02/18 03:32:30;;;;;;;580.87;556.60;;;11.00;99.90;;;;;;5084277;28;20469;-84
2023/02/18 03:35:02;;;;;;;655.00;624.73;;;10.90;99.90;;;;;;5084339;28;20442;-84
2023/02/18 03:37:33;;;;;;;688.03;653.43;;;10.80;99.90;;;;;;5084844;28;20451;-82
2023/02/18 03:40:01;;;;;;;691.53;656.83;;;10.70;99.90;;;;;;5085753;28;20835;-83
2023/02/18 03:42:29;;;;;;;728.20;688.77;;;10.70;99.90;;;;;;5085593;28;20478;-82
2023/02/18 03:44:56;;;;;;;765.03;718.67;;;10.60;99.90;;;;;;5084385;28;20834;-83
2023/02/18 03:47:23;;;;;;;776.57;728.17;;;10.70;99.90;;;;;;5083204;28;20484;-82
2023/02/18 03:49:50;;;;;;;756.67;712.07;;;10.60;99.90;;;;;;5082521;28;20451;-82
2023/02/18 03:52:17;;;;;;;770.77;722.97;;;10.60;99.90;;;;;;5080998;28;20470;-83
2023/02/18 03:54:45;;;;;;;753.90;710.43;;;10.60;99.90;;;;;;5064517;28;20455;-83
2023/02/18 03:57:12;;;;;;;737.23;695.63;;;10.60;99.90;;;;;;5068450;28;20454;-83
2023/02/18 03:59:39;;;;;;;732.20;691.40;;;10.70;99.90;;;;;;5084193;28;20478;-83
2023/02/18 04:02:05;;;;;;;719.13;680.17;;;10.70;99.90;;;;;;5083721;28;20458;-83
2023/02/18 04:04:33;;;;;;;725.27;685.67;;;10.70;99.90;;;;;;5084910;28;20446;-85
2023/02/18 04:06:59;;;;;;;724.13;685.17;;;10.70;99.90;;;;;;5083018;28;20454;-82
2023/02/18 04:09:26;;;;;;;703.73;665.63;;;10.70;99.90;;;;;;5078469;28;20517;-84
2023/02/18 04:11:54;;;;;;;698.17;659.67;;;10.70;99.90;;;;;;5083412;28;20451;-82
2023/02/18 04:14:21;;;;;;;700.43;660.53;;;10.70;99.90;;;;;;5082422;28;20447;-81
2023/02/18 04:16:48;;;;;;;746.17;699.37;;;10.60;99.90;;;;;;5081819;28;20458;-81
2023/02/18 04:19:14;;;;;;;769.17;716.37;;;10.50;99.90;;;;;;5081840;28;20478;-80
2023/02/18 04:21:41;;;;;;;787.10;728.90;;;10.40;99.90;;;;;;5076041;28;20460;-84
2023/02/18 04:24:08;;;;;;;794.40;735.40;;;10.40;99.90;;;;;;5081156;28;20858;-82
2023/02/18 04:26:35;;;;;;;786.63;724.77;;;10.40;99.90;;;;;;5074621;28;20618;-81
2023/02/18 04:29:03;;;;;;;785.53;723.50;;;10.40;99.90;;;;;;5060751;28;20466;-82
2023/02/18 04:31:30;;;;;;;788.87;725.53;;;10.30;99.90;;;;;;5060647;28;20462;-81
2023/02/18 04:33:57;;;;;;;796.17;732.40;;;10.40;99.90;;;;;;5059972;28;20494;-82
2023/02/18 04:36:23;;;;;;;783.83;718.40;;;10.30;99.90;;;;;;5059712;28;20458;-84
2023/02/18 04:38:50;;;;;;;780.67;715.30;;;10.30;99.90;;;;;;5060080;28;20451;-83
2023/02/18 04:41:17;;;;;;;771.83;704.07;;;10.30;99.90;;;;;;5061044;28;20452;-81
2023/02/18 04:43:43;;;;;;;770.10;699.53;;;10.30;99.90;;;;;;5060324;28;20486;-81
2023/02/18 04:46:11;;;;;;;773.27;702.90;;;10.30;99.90;;;;;;5060980;28;20460;-82
2023/02/18 04:48:38;;;;;;;765.87;693.70;;;10.30;99.90;;;;;;5061853;28;20447;-85
2023/02/18 04:51:06;;;;;;;763.20;690.30;;;10.20;99.90;;;;;;5061646;28;20451;-82
2023/02/18 04:53:33;;;;;;;763.53;689.17;;;10.30;99.90;;;;;;5061527;28;20529;-84
2023/02/18 04:56:00;;;;;;;751.97;676.37;;;10.20;99.90;;;;;;5061971;28;20456;-82
2023/02/18 04:58:27;;;;;;;752.33;676.97;;;10.20;99.90;;;;;;5061466;28;20459;-82
2023/02/18 05:00:53;;;;;;;744.63;670.10;;;10.20;99.90;;;;;;5061775;28;20482;-82
2023/02/18 05:03:22;;;;;;;742.60;672.80;;;10.20;99.90;;;;;;5069741;28;20467;-83
2023/02/18 05:05:48;;;;;;;742.80;669.20;;;10.20;99.90;;;;;;5081452;28;20549;-82
2023/02/18 05:08:15;;;;;;;747.93;673.27;;;10.20;99.90;;;;;;5080948;28;20450;-84
2023/02/18 05:10:42;;;;;;;747.40;674.17;;;10.20;99.90;;;;;;5080897;28;20454;-82
2023/02/18 05:13:09;;;;;;;752.40;677.30;;;10.20;99.90;;;;;;5080799;28;21014;-82
2023/02/18 05:15:35;;;;;;;743.43;666.43;;;10.20;99.90;;;;;;5080187;28;20454;-84
2023/02/18 05:18:02;;;;;;;751.73;677.87;;;10.20;99.90;;;;;;5081468;28;20960;-82
2023/02/18 05:20:30;;;;;;;768.73;692.67;;;10.10;99.90;;;;;;5080871;28;20475;-82
2023/02/18 05:22:57;;;;;;;769.90;691.53;;;10.10;99.90;;;;;;5080670;28;20475;-82
2023/02/18 05:25:24;;;;;;;777.63;699.93;;;10.10;99.90;;;;;;5079731;28;20450;-81
2023/02/18 05:27:51;;;;;;;770.80;695.00;;;10.10;99.90;;;;;;5080133;28;20458;-81
2023/02/18 05:30:18;;;;;;;771.10;695.83;;;10.10;99.90;;;;;;5080623;28;20447;-81
2023/02/18 05:32:44;;;;;;;771.97;695.37;;;10.10;99.90;;;;;;5079882;28;20596;-83
2023/02/18 05:35:12;;;;;;;760.37;685.50;;;10.10;99.90;;;;;;5080953;28;20451;-82
2023/02/18 05:37:40;;;;;;;750.97;676.60;;;10.10;99.90;;;;;;5080247;28;20450;-84
2023/02/18 05:40:08;;;;;;;747.40;672.57;;;10.10;99.90;;;;;;5080231;28;20474;-82
2023/02/18 05:42:34;;;;;;;739.77;667.23;;;10.10;99.90;;;;;;5080077;28;20481;-81
2023/02/18 05:45:01;;;;;;;748.43;675.83;;;10.10;99.90;;;;;;5079869;28;20815;-82
2023/02/18 05:47:28;;;;;;;751.73;678.53;;;10.10;99.90;;;;;;5079488;28;20446;-82
2023/02/18 05:49:55;;;;;;;754.13;679.97;;;10.10;99.90;;;;;;5078178;28;20446;-85
2023/02/18 05:52:22;;;;;;;759.57;684.40;;;10.10;99.90;;;;;;5079286;28;20475;-82
2023/02/18 05:54:50;;;;;;;757.73;684.50;;;10.10;99.90;;;;;;5078956;28;20447;-82
2023/02/18 05:57:17;;;;;;;759.07;684.67;;;10.10;99.90;;;;;;5079247;28;20988;-81
2023/02/18 05:59:44;;;;;;;747.90;675.37;;;10.00;99.90;;;;;;5079694;28;20489;-84
2023/02/18 06:02:10;;;;;;;748.33;675.67;;;10.10;99.90;;;;;;5077806;28;20482;-82
2023/02/18 06:04:38;;;;;;;733.97;664.33;;;10.10;99.90;;;;;;5079010;28;20451;-81
2023/02/18 06:07:04;;;;;;;727.63;658.87;;;10.00;99.90;;;;;;5079286;28;20447;-82
2023/02/18 06:09:31;;;;;;;721.27;653.30;;;10.10;99.90;;;;;;5078651;28;20453;-82
2023/02/18 06:11:59;;;;;;;708.07;644.10;;;10.00;99.90;;;;;;5079905;28;20450;-84
2023/02/18 06:14:26;;;;;;;711.47;645.30;;;10.10;99.90;;;;;;5078627;28;20450;-82
2023/02/18 06:16:53;;;;;;;736.97;669.90;;;10.10;99.90;;;;;;5079351;28;20824;-81
2023/02/18 06:19:19;;;;;;;739.87;672.40;;;10.10;99.90;;;;;;5079693;28;20462;-82
2023/02/18 06:21:46;;;;;;;743.30;676.97;;;10.10;99.90;;;;;;5079076;28;20446;-83
2023/02/18 06:24:13;;;;;;;748.13;682.87;;;10.10;99.90;;;;;;5078640;28;20470;-82
2023/02/18 06:26:40;;;;;;;736.23;674.00;;;10.10;99.90;;;;;;5077862;28;20447;-81
2023/02/18 06:29:08;;;;;;;738.80;679.30;;;10.10;99.90;;;;;;5076592;28;20446;-81
2023/02/18 06:31:34;;;;;;;728.37;672.03;;;10.20;99.90;;;;;;5078794;28;20458;-83
2023/02/18 06:34:01;;;;;;;726.83;672.97;;;10.20;99.90;;;;;;5079120;28;20825;-81
2023/02/18 06:36:28;;;;;;;716.13;665.13;;;10.20;99.90;;;;;;5076920;28;20461;-82
2023/02/18 06:38:56;;;;;;;713.67;666.17;;;10.30;99.90;;;;;;5077597;28;20461;-81
2023/02/18 06:41:23;;;;;;;702.57;657.07;;;10.30;99.90;;;;;;5077304;28;20474;-82
2023/02/18 06:43:49;;;;;;;686.90;643.33;;;10.30;99.90;;;;;;5078513;28;20478;-84
2023/02/18 06:46:17;;;;;;;673.93;633.03;;;10.30;99.90;;;;;;5077742;28;20446;-81
2023/02/18 06:48:44;;;;;;;660.40;622.23;;;10.40;99.90;;;;;;5078186;28;20450;-82
2023/02/18 06:51:11;;;;;;;637.97;602.87;;;10.50;99.90;;;;;;5077094;28;20451;-81
2023/02/18 06:53:38;;;;;;;630.03;596.53;;;10.40;99.90;;;;;;5077275;28;20473;-81
2023/02/18 06:56:05;;;;;;;605.63;574.73;;;10.40;99.90;;;;;;5074696;28;20839;-81
2023/02/18 06:58:32;;;;;;;590.67;562.17;;;10.40;99.90;;;;;;5072604;28;20452;-81
2023/02/18 07:00:59;;;;;;;575.23;548.43;;;10.50;99.90;;;;;;5056716;28;20482;-83
2023/02/18 07:03:27;;;;;;;559.33;534.13;;;10.50;99.90;;;;;;5080191;28;20471;-82
2023/02/18 07:05:54;;;;;;;470.73;452.20;;;10.50;99.90;;;;;;5081006;28;20451;-82
2023/02/18 07:08:20;;;;;;;461.50;443.80;;;10.60;99.90;;;;;;5080370;28;20443;-83
2023/02/18 07:10:48;;;;;;;432.90;416.57;;;10.60;99.90;;;;;;5079155;28;20461;-81
2023/02/18 07:13:15;;;;;;;395.80;381.43;;;10.50;99.90;;;;;;5081937;28;20470;-84
2023/02/18 07:15:42;;;;;;;372.03;358.67;;;10.60;99.90;;;;;;5081323;28;20947;-82
2023/02/18 07:18:09;;;;;;;348.97;336.67;;;10.60;99.90;;;;;;5082348;28;20446;-82
2023/02/18 07:20:37;;;;;;;383.57;370.07;;;10.60;99.90;;;;;;5080759;28;20470;-81
2023/02/18 07:23:04;;;;;;;306.43;296.00;;;10.60;99.90;;;;;;5078679;28;20466;-81
2023/02/18 07:25:30;;;;;;;206.70;199.87;;;10.70;99.90;;;;;;5080522;28;20449;-81
2023/02/18 07:27:57;;;;;;;241.77;234.03;;;10.70;99.90;;;;;;5083326;28;20451;-85
2023/02/18 07:30:24;;;;;;;216.43;209.50;;;10.80;99.90;;;;;;5075101;28;20454;-82
2023/02/18 07:32:51;;;;;;;202.00;195.50;;;10.80;99.90;;;;;;5079606;28;20473;-82
2023/02/18 07:35:20;;;;;;;223.03;215.90;;;10.80;99.90;;;;;;5080337;28;20451;-81
2023/02/18 07:37:49;;;;;;;283.67;274.77;;;10.50;99.90;;;;;;5082742;28;20446;-82
2023/02/18 07:40:18;;;;;;;414.97;401.03;;;10.40;99.90;;;;;;5082145;28;20466;-83
2023/02/18 07:42:45;;;;;;;526.20;506.03;;;10.20;99.90;;;;;;5081214;28;20478;-82
2023/02/18 07:45:13;;;;;;;587.30;562.13;;;10.10;99.90;;;;;;5081587;28;20460;-84
2023/02/18 07:47:40;;;;;;;592.23;564.93;;;10.00;99.90;;;;;;5081474;28;20455;-82
2023/02/18 07:50:08;;;;;;;573.43;548.23;;;9.90;99.90;;;;;;5080206;28;20477;-81
2023/02/18 07:52:35;;;;;;;598.40;570.70;;;9.80;99.90;;;;;;5080061;28;20478;-81
2023/02/18 07:55:04;;;;;;;576.73;551.23;;;9.90;99.90;;;;;;5080880;28;20454;-82
2023/02/18 07:57:31;;;;;;;580.50;554.17;;;10.00;99.90;;;;;;5077415;28;20446;-82
2023/02/18 07:59:58;;;;;;;571.33;545.73;;;9.90;99.90;;;;;;5079006;28;20450;-80
2023/02/18 08:02:25;;;;;;;603.80;573.93;;;9.90;99.90;;;;;;5080087;28;20470;-80
2023/02/18 08:04:52;;;;;;;605.03;575.17;;;9.90;99.90;;;;;;5078414;28;20454;-80
2023/02/18 08:07:21;;;;;;;613.03;581.07;;;9.90;99.90;;;;;;5082193;28;20451;-81
2023/02/18 08:09:49;;;;;;;549.97;526.20;;;9.80;99.90;;;;;;5083075;28;20507;-81
2023/02/18 08:12:17;;;;;;;513.73;492.87;;;9.80;99.90;;;;;;5081810;28;20528;-81
2023/02/18 08:14:45;;;;;;;519.73;498.73;;;9.70;99.90;;;;;;5080402;28;20455;-80
2023/02/18 08:17:12;;;;;;;522.87;499.93;;;9.60;99.90;;;;;;5080775;28;20470;-81
2023/02/18 08:19:40;;;;;;;529.47;507.57;;;9.60;99.90;;;;;;5080040;28;20450;-80
2023/02/18 08:22:09;;;;;;;542.50;518.80;;;9.60;99.90;;;;;;5079796;28;20466;-81
2023/02/18 08:24:36;;;;;;;533.70;510.63;;;9.50;99.90;;;;;;5081502;28;20449;-84
2023/02/18 08:27:03;;;;;;;531.43;508.27;;;9.60;99.90;;;;;;5088654;28;20482;-80
2023/02/18 08:29:31;;;;;;;512.33;489.80;;;9.60;99.90;;;;;;5088172;28;20455;-80
2023/02/18 08:31:58;;;;;;;502.17;481.70;;;9.60;99.90;;;;;;5073683;28;20474;-80
2023/02/18 08:34:25;;;;;;;501.53;480.93;;;9.50;99.90;;;;;;5089708;28;20439;-80
2023/02/18 08:36:52;;;;;;;491.20;471.50;;;9.60;99.90;;;;;;5091533;28;20482;-81
2023/02/18 08:39:26;;;;;;;470.90;451.83;;;9.60;99.90;;;;;;5087220;28;20455;-82
2023/02/18 08:41:53;;;;;;;447.77;430.60;;;9.70;99.90;;;;;;5089548;28;20470;-81
2023/02/18 08:44:20;;;;;;;456.70;438.80;;;9.80;99.90;;;;;;5091097;28;20447;-82
2023/02/18 08:46:49;;;;;;;429.87;413.97;;;9.80;99.90;;;;;;5089406;28;20455;-84
2023/02/18 08:49:19;;;;;;;406.40;391.57;;;9.90;99.90;;;;;;5091103;28;20545;-81
2023/02/18 08:51:46;;;;;;;352.47;339.57;;;10.00;99.90;;;;;;5087313;28;20446;-81
2023/02/18 08:54:17;;;;;;;342.17;330.13;;;10.00;99.90;;;;;;5086792;28;20494;-82
2023/02/18 08:56:44;;;;;;;353.67;341.03;;;10.10;99.90;;;;;;5087329;28;20495;-84
2023/02/18 08:59:11;;;;;;;359.10;346.80;;;10.10;99.90;;;;;;5087832;28;20447;-83
2023/02/18 09:01:38;;;;;;;356.17;343.57;;;10.20;99.90;;;;;;5088384;28;20454;-83
2023/02/18 09:04:09;;;;;;;252.20;243.93;;;10.10;99.90;;;;;;5089023;28;20561;-83
2023/02/18 09:06:38;;;;;;;263.17;254.43;;;10.10;99.90;;;;;;5087826;28;20592;-83
2023/02/18 09:09:06;;;;;;;255.50;247.20;;;10.20;99.90;;;;;;5087851;28;20446;-83
2023/02/18 09:11:33;;;;;;;229.60;222.23;;;10.10;99.90;;;;;;5088753;28;20469;-83
2023/02/18 09:14:00;;;;;;;165.83;160.13;;;10.20;99.90;;;;;;5068226;28;20471;-84
2023/02/18 09:16:28;;;;;;;88.60;85.17;;;10.20;99.90;;;;;;5072637;28;20493;-83
2023/02/18 09:18:57;;;;;;;88.43;85.10;;;10.30;99.90;;;;;;5088068;28;20960;-85
2023/02/18 09:21:27;;;;;;;47.50;44.83;;;10.40;99.90;;;;;;5087150;28;20466;-83
2023/02/18 09:23:54;;;;;;;37.43;34.90;;;10.40;99.90;;;;;;5088391;28;20466;-84
2023/02/18 09:26:22;;;;;;;42.17;39.93;;;10.60;99.90;;;;;;5087818;28;20466;-83
2023/02/18 09:28:49;;;;;;;31.90;29.60;;;10.70;99.90;;;;;;5088744;28;20538;-83
2023/02/18 09:31:19;;;;;;;35.07;33.10;;;10.70;99.90;;;;;;5086652;28;20526;-84
2023/02/18 09:33:47;;;;;;;55.37;52.73;;;10.70;99.90;;;;;;5084485;28;20474;-84
2023/02/18 09:36:15;;;;;;;20.97;19.43;;;10.70;99.90;;;;;;5085388;28;20455;-82
2023/02/18 09:38:43;;;;;;;21.47;20.23;;;10.70;99.90;;;;;;5076840;28;20450;-83
2023/02/18 09:41:19;;;;;;;31.20;24.03;;;10.70;99.90;;;;;;5085267;28;20469;-82
2023/02/18 09:43:50;;;;;;;26.57;24.63;;;10.80;99.90;;;;;;5080570;28;20485;-83
2023/02/18 09:46:21;;;;;;;29.67;27.93;;;11.00;99.90;;;;;;5082217;28;20450;-82
2023/02/18 09:48:48;;;;;;;18.77;17.83;;;11.00;99.90;;;;;;5079815;28;20445;-82
2023/02/18 09:51:17;;;;;;;15.20;14.20;;;11.00;99.90;;;;;;5079544;28;20450;-83
2023/02/18 09:53:46;;;;;;;15.17;13.93;;;11.00;99.90;;;;;;5082136;28;20572;-82
2023/02/18 09:56:15;;;;;;;13.17;11.73;;;11.00;99.90;;;;;;5079613;28;20450;-81
2023/02/18 09:58:44;;;;;;;5.63;3.90;;;11.00;99.90;;;;;;5081926;28;20450;-83
2023/02/18 10:01:17;;;;;;;11.23;5.13;;;11.00;99.90;;;;;;5081417;28;20470;-82
2023/02/18 10:03:44;;;;;;;8.23;5.27;;;11.00;99.90;;;;;;5080682;28;20997;-83
2023/02/18 10:06:18;;;;;;;6.87;3.43;;;11.00;99.90;;;;;;5082699;28;20450;-82
2023/02/18 10:08:49;;;;;;;7.70;4.50;;;11.00;99.90;;;;;;5081253;28;20442;-83
2023/02/18 10:11:21;;;;;;;8.43;4.83;;;11.00;99.90;;;;;;5081693;28;20435;-83
2023/02/18 10:13:48;;;;;;;8.43;4.67;;;11.10;99.90;;;;;;5082821;28;20475;-83
2023/02/18 10:16:18;;;;;;;7.37;3.97;;;11.10;99.90;;;;;;5083082;28;20541;-83
2023/02/18 10:18:50;;;;;;;9.90;3.93;;;11.30;99.90;;;;;;5081066;28;20944;-83
2023/02/18 10:21:21;;;;;;;6.67;3.63;;;11.30;99.90;;;;;;5082007;28;20470;-83
2023/02/18 10:23:57;;;;;;;11.83;3.67;;;11.40;99.90;;;;;;5084525;28;20462;-83
2023/02/18 10:26:25;;;;;;;9.90;3.30;;;11.50;99.90;;;;;;5084324;28;20498;-83
2023/02/18 10:28:52;;;;;;;13.10;3.73;;;11.50;99.90;;;;;;5063514;28;20448;-83
2023/02/18 10:31:25;;;;;;;7.20;2.80;;;11.40;99.90;;;;;;5062079;28;20444;-84
2023/02/18 10:33:59;;;;;;;6.90;3.63;;;11.30;99.90;;;;;;5080452;28;20816;-84
2023/02/18 10:36:29;;;;;;;18.07;3.93;;;11.20;99.90;;;;;;5079359;28;20509;-84
2023/02/18 10:39:31;;;;;;;12.80;3.80;;;11.10;99.90;;;;;;5080349;28;20446;-83
2023/02/18 10:42:09;;;;;;;5.20;3.10;;;11.00;99.90;;;;;;5083049;28;21015;-84
2023/02/18 10:44:49;;;;;;;6.70;4.00;;;10.80;99.90;;;;;;5083081;28;20446;-83
2023/02/18 10:47:23;;;;;;;11.03;9.87;;;10.40;99.90;;;;;;5081000;28;20446;-80
2023/02/18 10:49:58;;;;;;;19.43;17.63;;;10.10;99.90;;;;;;5080085;28;20435;-80
2023/02/18 10:52:29;;;;;;;30.50;29.13;;;10.00;99.90;;;;;;5079969;28;20465;-81
2023/02/18 10:55:03;;;;;;;24.60;23.43;;;9.90;99.90;;;;;;5081395;28;20454;-82
2023/02/18 10:57:30;;;;;;;20.97;19.77;;;9.70;99.90;;;;;;5081332;28;20837;-84
2023/02/18 11:00:01;;;;;;;21.77;20.50;;;9.80;99.90;;;;;;5083296;28;20461;-82
2023/02/18 11:02:31;;;;;;;16.97;15.77;;;9.90;99.90;;;;;;5084675;28;20489;-81
2023/02/18 11:05:01;;;;;;;33.20;31.37;;;9.90;99.90;;;;;;5082290;28;20442;-81
2023/02/18 11:07:33;;;;;;;53.27;51.23;;;9.90;99.90;;;;;;5083720;28;20463;-82
2023/02/18 11:10:14;;;;;;;53.83;51.73;;;9.90;99.90;;;;;;5080889;28;20458;-80
2023/02/18 11:12:46;;;;;;;218.47;211.27;;;9.90;99.90;;;;;;5079268;28;20481;-81
2023/02/18 11:15:20;;;;;;;207.53;201.00;;;10.10;99.90;;;;;;5079647;28;20457;-83
2023/02/18 11:17:48;;;;;;;221.97;215.03;;;10.10;99.90;;;;;;5079855;28;20458;-80
2023/02/18 11:20:31;;;;;;;339.70;329.13;;;10.00;99.90;;;;;;5080328;28;20459;-84
2023/02/18 11:23:13;;;;;;;242.37;235.03;;;10.00;99.90;;;;;;5078271;28;20485;-83
2023/02/18 11:25:52;;;;;;;275.43;266.97;;;10.00;99.90;;;;;;5079544;28;20450;-82
2023/02/18 11:28:37;;;;;;;378.10;365.90;;;9.90;99.90;;;;;;5083953;28;20449;-84
2023/02/18 11:31:05;;;;;;;489.30;471.40;;;10.00;99.90;;;;;;5084910;28;20531;-81
2023/02/18 11:33:35;;;;;;;497.50;479.30;;;10.00;99.90;;;;;;5081959;28;20500;-81
2023/02/18 11:36:12;;;;;;;498.40;479.70;;;9.90;99.90;;;;;;5082723;28;20445;-82
2023/02/18 11:38:44;;;;;;;432.07;417.40;;;10.00;99.90;;;;;;5084473;28;20575;-83
2023/02/18 11:41:16;;;;;;;510.37;490.47;;;10.00;99.90;;;;;;5082286;28;20462;-82
2023/02/18 11:43:46;;;;;;;513.73;493.93;;;10.10;99.90;;;;;;5079979;28;20485;-82
2023/02/18 11:46:15;;;;;;;500.47;481.40;;;10.00;99.90;;;;;;5078498;28;20884;-81
2023/02/18 11:48:42;;;;;;;426.43;412.27;;;10.00;99.90;;;;;;5080705;28;20454;-81
2023/02/18 11:51:16;;;;;;;456.57;439.87;;;10.00;99.90;;;;;;5085139;28;20457;-82
2023/02/18 11:53:58;;;;;;;500.00;480.50;;;10.00;99.90;;;;;;5082640;28;20481;-82
2023/02/18 11:56:28;;;;;;;479.53;461.33;;;9.90;99.90;;;;;;5083011;28;20516;-83
2023/02/18 11:58:56;;;;;;;528.90;506.53;;;10.00;99.90;;;;;;5083904;28;20446;-82
2023/02/18 12:01:41;;;;;;;467.57;450.40;;;9.90;99.90;;;;;;5081803;28;20977;-83
2023/02/18 12:04:12;;;;;;;450.97;434.20;;;10.00;99.90;;;;;;5082159;28;20470;-82
2023/02/18 12:06:46;;;;;;;430.73;415.53;;;10.00;99.90;;;;;;5081504;28;20454;-80
2023/02/18 12:09:22;;;;;;;494.47;475.50;;;10.00;99.90;;;;;;5081645;28;20446;-80
2023/02/18 12:11:53;;;;;;;507.53;488.13;;;10.10;99.90;;;;;;5082185;28;20446;-80
2023/02/18 12:14:22;;;;;;;531.07;510.20;;;10.00;99.90;;;;;;5083369;28;20439;-81
2023/02/18 12:17:06;;;;;;;543.80;520.37;;;10.00;99.90;;;;;;5081890;28;20454;-80
2023/02/18 12:20:00;;;;;;;499.03;479.93;;;10.00;99.90;;;;;;5080249;28;20438;-81
2023/02/18 12:22:37;;;;;;;493.83;474.23;;;10.00;99.90;;;;;;5078313;28;20482;-80
2023/02/18 12:25:24;;;;;;;531.33;508.40;;;10.00;99.90;;;;;;5081171;28;20450;-81
2023/02/18 12:28:03;;;;;;;522.67;500.80;;;10.10;99.90;;;;;;5081732;28;20442;-81